Current | Forecast
Updated: 4:30 PM +04 on December 16, 2018
Observed at Saint Denis, Reunion Island
Temperature 84°F
Humidity 58%
Dew Point 68°F
Wind East at 21 mph
Pressure 29.98 in (Steady)
Conditions Clear
Visibility -
UV N/A
Clouds
Yesterday's Maximum 88°F
Yesterday's Minimum 75°F approx.
Yesterday's Cooling Degree Days 17 approx.
Sunrise5:31 AM +04
Sunset6:55 PM +04
Moon Rise12:57 PM +04
Moon Set12:47 AM +04
Moon PhaseMoon Phase
First Quarter
Raw METARMETAR FMEE 161230Z AUTO 10018KT CAVOK 29/20 Q1015 TEMPO 10020G30KT



Units: English | Metric

Find the Weather for any City, State or Zipcode, or Country:

U.S. State List | Severe Weather | Tropical Storms | Ski Conditions
United States | Canada | Central America | South America | Asia | Europe | Australia | Africa | Islands

Weather Underground

© Copyright 2018
The Weather Company, LLC